KETN

Eastland Municipal Airport

Eastland, Texas, USA
METAR KETN 201735Z AUTO 02010KT 10SM BKN019 19/14 A3029 RMK AO2 T01890145
Observed Flight Rules
Oct-20 @ 17:35 UTC (17 minutes ago) Marginal Visual Flight Rules
Wind Visibility Clouds
20° at 10 knots 10 miles
  • Broken at 1,900' AGL
Temperatures Readings
Current 19°C / 66°F
Dewpoint 15°C / 59°F
Humidity 78%
Altimeter 30.29" Hg
Pressure 1026 hPa
Elevation 446
METAR KETN 201735Z AUTO 02010KT 10SM BKN019 19/14 A3029 RMK AO2 T01890145
Observed Flight Rules
Oct-20 @ 17:35 UTC
(17 minutes ago)
MVFR
Wind Visibility
20° at 10 knots 10 miles
Clouds
  • Broken at 1,900' AGL
Temperature Dewpoint
19°C / 66°F 15°C / 59°F
Humidity Altimeter Pressure
78% 30.29" Hg 1026 hPa